createdAt,value
2022-12-31T00:00:33.571Z,0.40
2022-12-31T00:03:01.158Z,0.40
2022-12-31T00:05:30.783Z,0.32
2022-12-31T00:07:58.243Z,0.40
2022-12-31T00:10:26.110Z,0.30
2022-12-31T00:12:54.851Z,0.30
2022-12-31T00:15:22.303Z,0.32
2022-12-31T00:17:50.497Z,0.32
2022-12-31T00:20:18.412Z,0.40
2022-12-31T00:22:45.863Z,0.30
2022-12-31T00:25:13.291Z,0.38
2022-12-31T00:27:40.764Z,0.30
2022-12-31T00:30:10.615Z,0.40
2022-12-31T00:32:38.063Z,0.30
2022-12-31T00:35:05.919Z,0.30
2022-12-31T00:37:33.361Z,0.30
2022-12-31T00:40:00.819Z,0.30
2022-12-31T00:42:28.286Z,0.40
2022-12-31T00:44:55.743Z,0.45
2022-12-31T00:47:24.735Z,0.30
2022-12-31T00:49:52.156Z,0.40
2022-12-31T00:52:19.743Z,0.30
2022-12-31T00:54:47.185Z,0.30
2022-12-31T00:57:14.671Z,0.35
2022-12-31T00:59:42.104Z,0.30
2022-12-31T01:02:09.741Z,0.28
2022-12-31T01:04:38.686Z,0.30
2022-12-31T01:07:06.127Z,0.30
2022-12-31T01:09:33.573Z,0.30
2022-12-31T01:12:01.001Z,0.30
2022-12-31T01:14:28.437Z,0.30
2022-12-31T01:16:55.897Z,0.40
2022-12-31T01:19:24.558Z,0.20
2022-12-31T01:21:53.515Z,0.35
2022-12-31T01:24:20.964Z,0.30
2022-12-31T01:26:51.084Z,0.40
2022-12-31T01:29:18.620Z,0.30
2022-12-31T01:31:46.171Z,0.40
2022-12-31T01:34:13.656Z,0.30
2022-12-31T01:36:41.085Z,0.30
2022-12-31T01:39:09.933Z,0.30
2022-12-31T01:41:38.350Z,0.30
2022-12-31T01:44:20.661Z,0.20
2022-12-31T01:46:49.020Z,0.20
2022-12-31T01:49:18.133Z,0.30
2022-12-31T01:51:46.542Z,0.40
2022-12-31T01:54:17.000Z,0.20
2022-12-31T01:56:46.315Z,0.28
2022-12-31T01:59:15.484Z,0.30
2022-12-31T02:01:43.291Z,0.30
2022-12-31T02:04:11.933Z,0.25
2022-12-31T02:06:41.252Z,0.30
2022-12-31T02:09:08.834Z,0.30
2022-12-31T02:11:38.076Z,0.28
2022-12-31T02:14:07.435Z,0.30
2022-12-31T02:16:40.093Z,0.28
2022-12-31T02:19:14.198Z,0.30
2022-12-31T02:21:45.984Z,0.20
2022-12-31T02:24:31.887Z,0.30
2022-12-31T02:27:02.811Z,0.40
2022-12-31T02:29:41.335Z,0.40
2022-12-31T02:32:14.562Z,0.30
2022-12-31T02:34:44.684Z,0.20
2022-12-31T02:37:13.272Z,0.38
2022-12-31T02:39:41.861Z,0.20
2022-12-31T02:42:10.593Z,0.30
2022-12-31T02:44:39.431Z,0.30
2022-12-31T02:47:22.455Z,0.35
2022-12-31T02:49:56.346Z,0.20
2022-12-31T02:52:29.411Z,0.30
2022-12-31T02:54:59.898Z,0.30
2022-12-31T02:57:30.638Z,0.20
2022-12-31T03:00:16.456Z,0.40
2022-12-31T03:02:46.694Z,0.20
2022-12-31T03:05:14.735Z,0.30
2022-12-31T03:07:42.657Z,0.20
2022-12-31T03:10:10.230Z,0.30
2022-12-31T03:12:46.580Z,0.30
2022-12-31T03:15:20.748Z,0.20
2022-12-31T03:17:54.717Z,0.30
2022-12-31T03:20:40.959Z,0.30
2022-12-31T03:23:09.335Z,0.30
2022-12-31T03:25:35.911Z,0.22
2022-12-31T03:28:04.589Z,0.30
2022-12-31T03:30:32.761Z,0.20
2022-12-31T03:33:01.603Z,0.40
2022-12-31T03:35:30.300Z,0.22
2022-12-31T03:37:57.774Z,0.20
2022-12-31T03:40:26.024Z,0.30
2022-12-31T03:42:53.490Z,0.30
2022-12-31T03:45:20.956Z,0.35
2022-12-31T03:47:48.516Z,0.30
2022-12-31T03:50:18.334Z,0.20
2022-12-31T03:52:45.832Z,0.20
2022-12-31T03:55:13.567Z,0.20
2022-12-31T03:57:41.067Z,0.20
2022-12-31T04:00:11.209Z,0.30
2022-12-31T04:02:38.758Z,0.30
2022-12-31T04:05:06.736Z,0.20
2022-12-31T04:07:35.552Z,0.20
2022-12-31T04:10:03.701Z,0.17
2022-12-31T04:12:31.181Z,0.20
2022-12-31T04:14:58.707Z,0.20
2022-12-31T04:17:26.279Z,0.20
2022-12-31T04:19:53.715Z,0.20
2022-12-31T04:22:21.447Z,0.22
2022-12-31T04:24:50.295Z,0.20
2022-12-31T04:27:18.020Z,0.20
2022-12-31T04:29:45.459Z,0.22
2022-12-31T04:32:12.992Z,0.30
2022-12-31T04:34:40.447Z,0.30
2022-12-31T04:37:07.860Z,0.20
2022-12-31T04:39:35.341Z,0.30
2022-12-31T04:42:04.217Z,0.30
2022-12-31T04:44:34.814Z,0.30
2022-12-31T04:47:02.262Z,0.10
2022-12-31T04:49:29.695Z,0.20
2022-12-31T04:51:57.162Z,0.30
2022-12-31T04:54:24.744Z,0.30
2022-12-31T04:56:52.197Z,0.20
2022-12-31T04:59:21.036Z,0.40
2022-12-31T05:01:48.677Z,0.30
2022-12-31T05:04:16.135Z,0.20
2022-12-31T05:06:43.585Z,0.30
2022-12-31T05:09:11.122Z,0.30
2022-12-31T05:11:39.272Z,0.22
2022-12-31T05:14:06.730Z,0.20
2022-12-31T05:16:35.651Z,0.20
2022-12-31T05:19:06.186Z,0.30
2022-12-31T05:21:33.686Z,0.30
2022-12-31T05:24:01.238Z,0.30
2022-12-31T05:26:28.723Z,0.20
2022-12-31T05:28:56.455Z,0.30
2022-12-31T05:31:23.948Z,0.20
2022-12-31T05:33:53.642Z,0.30
2022-12-31T05:36:21.067Z,0.20
2022-12-31T05:38:48.508Z,0.30
2022-12-31T05:41:15.943Z,0.30
2022-12-31T05:43:43.381Z,0.30
2022-12-31T05:46:10.864Z,0.30
2022-12-31T05:48:38.366Z,0.20
2022-12-31T05:51:07.298Z,0.20
2022-12-31T05:53:35.144Z,0.20
2022-12-31T05:56:02.572Z,0.25
2022-12-31T05:58:29.993Z,0.30
2022-12-31T06:00:57.558Z,0.22
2022-12-31T06:03:25.125Z,0.30
2022-12-31T06:05:52.571Z,0.20
2022-12-31T06:08:21.358Z,0.30
2022-12-31T06:10:48.792Z,0.28
2022-12-31T06:13:16.199Z,0.20
2022-12-31T06:15:43.670Z,0.30
2022-12-31T06:18:11.270Z,0.20
2022-12-31T06:20:38.791Z,0.25
2022-12-31T06:23:06.598Z,0.30
2022-12-31T06:25:37.242Z,0.30
2022-12-31T06:28:04.836Z,0.35
2022-12-31T06:30:32.402Z,0.40
2022-12-31T06:32:59.862Z,0.40
2022-12-31T06:35:27.337Z,0.25
2022-12-31T06:37:54.745Z,0.20
2022-12-31T06:40:22.177Z,0.20
2022-12-31T06:42:59.499Z,0.20
2022-12-31T06:45:28.173Z,0.30
2022-12-31T06:47:55.626Z,0.30
2022-12-31T06:50:23.124Z,0.30
2022-12-31T06:52:50.542Z,0.30
2022-12-31T06:55:43.044Z,0.30
2022-12-31T06:58:12.938Z,0.30
2022-12-31T07:00:41.946Z,0.30
2022-12-31T07:03:20.602Z,0.30
2022-12-31T07:05:50.577Z,0.20
2022-12-31T07:08:22.665Z,0.20
2022-12-31T07:10:53.639Z,0.22
2022-12-31T07:13:31.030Z,0.30
2022-12-31T07:16:27.231Z,0.20
2022-12-31T07:18:58.729Z,0.20
2022-12-31T07:21:31.555Z,0.20
2022-12-31T07:23:59.215Z,0.30
2022-12-31T07:26:35.877Z,0.20
2022-12-31T07:29:11.561Z,0.20
2022-12-31T07:31:48.478Z,0.30
2022-12-31T07:34:20.817Z,0.28
2022-12-31T07:36:55.078Z,0.30
2022-12-31T07:39:25.131Z,0.40
2022-12-31T07:41:55.550Z,0.20
2022-12-31T07:44:32.477Z,0.30
2022-12-31T07:47:01.099Z,0.22
2022-12-31T07:49:29.629Z,0.20
2022-12-31T07:51:57.679Z,0.20
2022-12-31T07:54:25.098Z,0.30
2022-12-31T07:56:52.772Z,0.20
2022-12-31T07:59:28.268Z,0.30
2022-12-31T08:02:02.525Z,0.30
2022-12-31T08:04:32.457Z,0.20
2022-12-31T08:07:04.298Z,0.30
2022-12-31T08:09:37.596Z,0.20
2022-12-31T08:12:05.221Z,0.20
2022-12-31T08:14:33.580Z,0.20
2022-12-31T08:17:02.743Z,0.20
2022-12-31T08:19:31.559Z,0.20
2022-12-31T08:22:06.144Z,0.30
2022-12-31T08:24:39.524Z,0.20
2022-12-31T08:27:09.729Z,0.30
2022-12-31T08:29:41.146Z,0.20
2022-12-31T08:32:13.253Z,0.20
2022-12-31T08:34:44.957Z,0.10
2022-12-31T08:37:14.205Z,0.20
2022-12-31T08:39:53.105Z,0.10
2022-12-31T08:42:23.203Z,0.30
2022-12-31T08:44:54.537Z,0.30
2022-12-31T08:47:27.218Z,0.20
2022-12-31T08:49:55.454Z,0.20
2022-12-31T08:52:24.695Z,0.20
2022-12-31T08:54:52.469Z,0.20
2022-12-31T08:57:24.139Z,0.20
2022-12-31T08:59:56.842Z,0.20
2022-12-31T09:02:47.751Z,0.20
2022-12-31T09:05:20.150Z,0.20
2022-12-31T09:07:51.500Z,0.20
2022-12-31T09:10:20.219Z,0.20
2022-12-31T09:12:50.844Z,0.20
2022-12-31T09:15:22.074Z,0.20
2022-12-31T09:17:50.667Z,0.20
2022-12-31T09:20:22.808Z,0.20
2022-12-31T09:22:50.598Z,0.20
2022-12-31T09:25:19.326Z,0.10
2022-12-31T09:27:52.716Z,0.20
2022-12-31T09:30:20.520Z,0.20
2022-12-31T09:32:58.570Z,0.20
2022-12-31T09:35:34.330Z,0.15
2022-12-31T09:38:09.507Z,0.20
2022-12-31T09:40:51.765Z,0.20
2022-12-31T09:43:42.943Z,0.13
2022-12-31T09:46:23.993Z,0.10
2022-12-31T09:49:07.564Z,0.10
2022-12-31T09:51:39.069Z,0.20
2022-12-31T09:54:36.357Z,0.10
2022-12-31T09:57:14.523Z,0.20
2022-12-31T09:59:46.557Z,0.20
2022-12-31T10:02:17.956Z,0.20
2022-12-31T10:04:53.193Z,0.15
2022-12-31T10:07:32.886Z,0.20
2022-12-31T10:10:07.504Z,0.10
2022-12-31T10:12:46.584Z,0.20
2022-12-31T10:15:35.139Z,0.30
2022-12-31T10:18:05.101Z,0.20
2022-12-31T10:20:46.616Z,0.20
2022-12-31T10:23:35.476Z,0.20
2022-12-31T10:26:11.920Z,0.20
2022-12-31T10:28:45.823Z,0.13
2022-12-31T10:31:15.255Z,0.15
2022-12-31T10:33:43.919Z,0.13
2022-12-31T10:36:16.668Z,0.10
2022-12-31T10:38:49.411Z,0.28
2022-12-31T10:41:31.710Z,0.10
2022-12-31T10:44:14.031Z,0.20
2022-12-31T10:46:58.722Z,0.20
2022-12-31T10:49:41.055Z,0.10
2022-12-31T10:52:21.195Z,0.20
2022-12-31T10:55:06.474Z,0.20
2022-12-31T10:57:52.187Z,0.20
2022-12-31T11:00:20.116Z,0.15
2022-12-31T11:03:02.544Z,0.20
2022-12-31T11:05:45.415Z,0.10
2022-12-31T11:08:23.034Z,0.20
2022-12-31T11:10:59.300Z,0.10
2022-12-31T11:13:38.949Z,0.10
2022-12-31T11:16:14.609Z,0.20
2022-12-31T11:18:48.610Z,0.20
2022-12-31T11:21:30.921Z,0.10
2022-12-31T11:24:05.278Z,0.13
2022-12-31T11:26:40.157Z,0.20
2022-12-31T11:29:17.366Z,0.25
2022-12-31T11:31:52.241Z,0.20
2022-12-31T11:34:26.577Z,0.20
2022-12-31T11:37:05.241Z,0.20
2022-12-31T11:39:40.805Z,0.17
2022-12-31T11:42:17.181Z,0.17
2022-12-31T11:44:47.530Z,0.20
2022-12-31T11:47:19.646Z,0.20
2022-12-31T11:50:02.046Z,0.10
2022-12-31T11:52:37.765Z,0.10
2022-12-31T11:55:19.301Z,0.10
2022-12-31T11:57:49.396Z,0.15
2022-12-31T12:00:19.846Z,0.17
2022-12-31T12:02:48.855Z,0.10
2022-12-31T12:05:17.583Z,0.10
2022-12-31T12:07:45.316Z,0.20
2022-12-31T12:10:18.629Z,0.15
2022-12-31T12:12:46.096Z,0.10
2022-12-31T12:15:18.488Z,0.10
2022-12-31T12:17:50.513Z,0.20
2022-12-31T12:20:19.762Z,0.10
2022-12-31T12:22:51.262Z,0.15
2022-12-31T12:25:21.467Z,0.10
2022-12-31T12:27:49.219Z,0.15
2022-12-31T12:30:20.118Z,0.10
2022-12-31T12:32:52.020Z,0.15
2022-12-31T12:35:24.623Z,0.10
2022-12-31T12:37:59.447Z,0.17
2022-12-31T12:40:33.759Z,0.10
2022-12-31T12:43:02.464Z,0.10
2022-12-31T12:45:37.341Z,0.15
2022-12-31T12:48:09.011Z,0.20
2022-12-31T12:50:39.421Z,0.20
2022-12-31T12:53:17.355Z,0.20
2022-12-31T12:55:52.501Z,0.10
2022-12-31T12:58:27.554Z,0.10
2022-12-31T13:01:01.563Z,0.20
2022-12-31T13:04:23.376Z,0.10
2022-12-31T13:06:39.029Z,0.10
2022-12-31T13:09:16.032Z,0.13
2022-12-31T13:11:48.149Z,0.10
2022-12-31T13:14:19.320Z,0.13
2022-12-31T13:16:50.389Z,0.10
2022-12-31T13:19:20.919Z,0.20
2022-12-31T13:21:51.310Z,0.20
2022-12-31T13:24:23.676Z,0.20
2022-12-31T13:26:55.397Z,0.20
2022-12-31T13:29:25.621Z,0.20
2022-12-31T13:31:53.410Z,0.20
2022-12-31T13:34:23.510Z,0.22
2022-12-31T13:36:52.531Z,0.10
2022-12-31T13:39:21.705Z,0.20
2022-12-31T13:41:51.133Z,0.20
2022-12-31T13:44:23.327Z,0.20
2022-12-31T13:46:55.739Z,0.20
2022-12-31T13:49:25.757Z,0.20
2022-12-31T13:51:59.932Z,0.20
2022-12-31T13:54:31.943Z,0.20
2022-12-31T13:57:02.083Z,0.20
2022-12-31T13:59:32.471Z,0.20
2022-12-31T14:02:02.561Z,0.20
2022-12-31T14:04:33.564Z,0.20
2022-12-31T14:07:03.499Z,0.22
2022-12-31T14:09:32.195Z,0.20
2022-12-31T14:12:04.694Z,0.20
2022-12-31T14:14:42.062Z,0.20
2022-12-31T14:17:17.511Z,0.20
2022-12-31T14:19:50.793Z,0.20
2022-12-31T14:22:21.610Z,0.20
2022-12-31T14:24:50.674Z,0.20
2022-12-31T14:27:20.790Z,0.20
2022-12-31T14:29:50.445Z,0.20
2022-12-31T14:32:26.868Z,0.20
2022-12-31T14:34:59.422Z,0.10
2022-12-31T14:37:31.790Z,0.20
2022-12-31T14:40:01.543Z,0.20
2022-12-31T14:42:32.660Z,0.20
2022-12-31T14:45:09.518Z,0.20
2022-12-31T14:47:42.107Z,0.20
2022-12-31T14:50:12.612Z,0.20
2022-12-31T14:52:49.412Z,0.20
2022-12-31T14:55:22.851Z,0.20
2022-12-31T15:00:40.425Z,0.20
2022-12-31T15:03:19.892Z,0.20
2022-12-31T15:05:51.755Z,0.20
2022-12-31T15:08:27.679Z,0.20
2022-12-31T15:11:03.732Z,0.20
2022-12-31T15:13:37.807Z,0.20
2022-12-31T15:16:16.173Z,0.30
2022-12-31T15:18:51.334Z,0.30
2022-12-31T15:21:33.124Z,0.30
2022-12-31T15:24:01.423Z,0.20
2022-12-31T15:26:31.142Z,0.30
2022-12-31T15:29:00.457Z,0.30
2022-12-31T15:31:29.601Z,0.20
2022-12-31T15:33:58.494Z,0.30
2022-12-31T15:36:26.968Z,0.20
2022-12-31T15:39:05.082Z,0.20
2022-12-31T15:41:37.785Z,0.30
2022-12-31T15:44:09.519Z,0.30
2022-12-31T15:46:41.379Z,0.28
2022-12-31T15:49:15.601Z,0.30
2022-12-31T15:51:45.239Z,0.30
2022-12-31T15:54:16.996Z,0.30
2022-12-31T15:57:09.677Z,0.20
2022-12-31T15:59:38.136Z,0.40
2022-12-31T16:02:17.774Z,0.30
2022-12-31T16:04:45.621Z,0.30
2022-12-31T16:07:13.342Z,0.30
2022-12-31T16:09:41.654Z,0.40
2022-12-31T16:12:10.977Z,0.30
2022-12-31T16:14:39.385Z,0.30
2022-12-31T16:17:08.339Z,0.30
2022-12-31T16:19:37.001Z,0.30
2022-12-31T16:22:08.757Z,0.30
2022-12-31T16:24:48.899Z,0.30
2022-12-31T16:27:24.870Z,0.32
2022-12-31T16:29:57.099Z,0.40
2022-12-31T16:32:26.013Z,0.30
2022-12-31T16:34:54.774Z,0.30
2022-12-31T16:37:23.319Z,0.40
2022-12-31T16:40:24.243Z,0.35
2022-12-31T16:42:53.119Z,0.40
2022-12-31T16:45:29.435Z,0.30
2022-12-31T16:47:59.470Z,0.35
2022-12-31T16:50:26.944Z,0.30
2022-12-31T16:52:58.530Z,0.30
2022-12-31T16:55:27.200Z,0.40
2022-12-31T16:57:57.765Z,0.30
2022-12-31T17:00:25.872Z,0.40
2022-12-31T17:02:59.463Z,0.30
2022-12-31T17:05:52.285Z,0.30
2022-12-31T17:08:24.763Z,0.30
2022-12-31T17:10:52.224Z,0.30
2022-12-31T17:13:29.129Z,0.40
2022-12-31T17:15:58.197Z,0.30
2022-12-31T17:18:27.306Z,0.40
2022-12-31T17:20:55.737Z,0.30
2022-12-31T17:23:29.608Z,0.32
2022-12-31T17:26:00.813Z,0.30
2022-12-31T17:28:29.776Z,0.40
2022-12-31T17:31:00.611Z,0.40
2022-12-31T17:33:31.689Z,0.30
2022-12-31T17:36:14.441Z,0.30
2022-12-31T17:38:43.385Z,0.30
2022-12-31T17:41:18.113Z,0.40
2022-12-31T17:43:45.573Z,0.30
2022-12-31T17:46:14.501Z,0.35
2022-12-31T17:48:42.331Z,0.30
2022-12-31T17:51:10.842Z,0.32
2022-12-31T17:53:38.254Z,0.30
2022-12-31T17:56:14.197Z,0.30
2022-12-31T17:58:44.412Z,0.30
2022-12-31T18:01:14.631Z,0.30
2022-12-31T18:03:42.768Z,0.30
2022-12-31T18:06:16.338Z,0.30
2022-12-31T18:08:44.394Z,0.30
2022-12-31T18:11:16.041Z,0.30
2022-12-31T18:13:43.507Z,0.30
2022-12-31T18:16:38.587Z,0.32
2022-12-31T18:19:06.647Z,0.40
2022-12-31T18:21:35.803Z,0.40
2022-12-31T18:26:32.577Z,0.40
2022-12-31T18:29:01.185Z,0.30
2022-12-31T18:31:29.794Z,0.40
2022-12-31T18:33:58.268Z,0.45
2022-12-31T18:36:26.075Z,0.35
2022-12-31T18:38:53.706Z,0.40
2022-12-31T18:41:46.523Z,0.30
2022-12-31T18:44:15.796Z,0.30
2022-12-31T18:46:43.665Z,0.30
2022-12-31T18:49:11.144Z,0.40
2022-12-31T18:51:41.295Z,0.40
2022-12-31T18:54:11.317Z,0.30
2022-12-31T18:56:43.442Z,0.38
2022-12-31T18:59:15.427Z,0.30
2022-12-31T19:01:42.995Z,0.30
2022-12-31T19:04:13.030Z,0.38
2022-12-31T19:06:40.581Z,0.30
2022-12-31T19:09:23.862Z,0.30
2022-12-31T19:11:55.570Z,0.30
2022-12-31T19:14:26.413Z,0.30
2022-12-31T19:16:54.544Z,0.30
2022-12-31T19:19:22.496Z,0.30
2022-12-31T19:21:49.982Z,0.30
2022-12-31T19:24:18.907Z,0.30
2022-12-31T19:26:46.388Z,0.40
2022-12-31T19:29:16.659Z,0.43
2022-12-31T19:31:45.698Z,0.40
2022-12-31T19:34:13.261Z,0.30
2022-12-31T19:36:44.120Z,0.40
2022-12-31T19:39:15.726Z,0.30
2022-12-31T19:41:43.228Z,0.30
2022-12-31T19:44:12.835Z,0.30
2022-12-31T19:46:40.274Z,0.30
2022-12-31T19:49:11.072Z,0.40
2022-12-31T19:51:38.479Z,0.30
2022-12-31T19:54:06.112Z,0.30
2022-12-31T19:56:33.554Z,0.30
2022-12-31T19:59:03.881Z,0.30
2022-12-31T20:01:31.414Z,0.30
2022-12-31T20:03:58.904Z,0.35
2022-12-31T20:06:27.700Z,0.40
2022-12-31T20:08:55.139Z,0.30
2022-12-31T20:11:23.666Z,0.45
2022-12-31T20:13:52.158Z,0.32
2022-12-31T20:16:20.478Z,0.40
2022-12-31T20:18:48.598Z,0.38
2022-12-31T20:21:17.766Z,0.40
2022-12-31T20:23:47.062Z,0.40
2022-12-31T20:26:14.644Z,0.30
2022-12-31T20:28:42.079Z,0.40
2022-12-31T20:31:10.076Z,0.40
2022-12-31T20:33:37.599Z,0.40
2022-12-31T20:36:05.581Z,0.30
2022-12-31T20:38:33.221Z,0.30
2022-12-31T20:41:05.141Z,0.40
2022-12-31T20:43:33.063Z,0.30
2022-12-31T20:46:00.763Z,0.40
2022-12-31T20:48:28.203Z,0.40
2022-12-31T20:50:55.870Z,0.30
2022-12-31T20:53:26.115Z,0.50
2022-12-31T20:55:53.848Z,0.50
2022-12-31T20:58:22.623Z,0.30
2022-12-31T21:00:52.002Z,0.40
2022-12-31T21:03:54.160Z,0.30
2022-12-31T21:06:07.712Z,0.32
2022-12-31T21:08:35.498Z,0.30
2022-12-31T21:11:03.355Z,0.35
2022-12-31T21:13:31.184Z,0.40
2022-12-31T21:15:58.659Z,0.40
2022-12-31T21:18:26.122Z,0.32
2022-12-31T21:20:53.744Z,0.30
2022-12-31T21:23:21.380Z,0.30
2022-12-31T21:25:50.061Z,0.40
2022-12-31T21:28:17.515Z,0.30
2022-12-31T21:30:46.334Z,0.40
2022-12-31T21:33:13.780Z,0.40
2022-12-31T21:35:45.679Z,0.30
2022-12-31T21:38:19.338Z,0.40
2022-12-31T21:40:46.788Z,0.35
2022-12-31T21:43:14.472Z,0.32
2022-12-31T21:45:42.163Z,0.30
2022-12-31T21:48:22.063Z,0.40
2022-12-31T21:50:50.229Z,0.32
2022-12-31T21:53:23.902Z,0.40
2022-12-31T21:56:11.393Z,0.32
2022-12-31T21:58:39.463Z,0.35
2022-12-31T22:01:25.031Z,0.30
2022-12-31T22:03:54.001Z,0.50
2022-12-31T22:06:22.398Z,0.20
2022-12-31T22:08:50.460Z,0.30
2022-12-31T22:11:18.793Z,0.40
2022-12-31T22:13:46.684Z,0.40
2022-12-31T22:16:14.580Z,0.30
2022-12-31T22:18:43.893Z,0.35
2022-12-31T22:21:18.850Z,0.40
2022-12-31T22:23:47.462Z,0.35
2022-12-31T22:26:15.946Z,0.40
2022-12-31T22:28:44.226Z,0.30
2022-12-31T22:31:14.178Z,0.30
2022-12-31T22:33:41.762Z,0.30
2022-12-31T22:36:11.319Z,0.30
2022-12-31T22:38:40.101Z,0.40
2022-12-31T22:41:08.550Z,0.30
2022-12-31T22:43:37.579Z,0.35
2022-12-31T22:46:09.344Z,0.35
2022-12-31T22:48:36.988Z,0.40
2022-12-31T22:51:04.486Z,0.40
2022-12-31T22:53:31.912Z,0.30
2022-12-31T22:56:00.755Z,0.30
2022-12-31T22:58:28.480Z,0.30
2022-12-31T23:00:55.978Z,0.30
2022-12-31T23:03:23.499Z,0.30
2022-12-31T23:05:52.262Z,0.30
2022-12-31T23:08:23.267Z,0.45
2022-12-31T23:11:00.511Z,0.30
2022-12-31T23:13:51.002Z,0.30
2022-12-31T23:16:36.985Z,0.30
2022-12-31T23:19:21.970Z,0.30
2022-12-31T23:22:06.813Z,0.30
2022-12-31T23:24:34.313Z,0.30
2022-12-31T23:27:01.776Z,0.30
2022-12-31T23:29:30.567Z,0.32
2022-12-31T23:31:58.029Z,0.30
2022-12-31T23:34:25.481Z,0.30
2022-12-31T23:36:52.930Z,0.40
2022-12-31T23:39:20.452Z,0.30
2022-12-31T23:41:47.922Z,0.30
2022-12-31T23:44:15.335Z,0.30
2022-12-31T23:46:44.369Z,0.30
2022-12-31T23:49:12.393Z,0.30
2022-12-31T23:51:45.683Z,0.40
2022-12-31T23:54:14.714Z,0.38
2022-12-31T23:56:42.257Z,0.40
2022-12-31T23:59:10.427Z,0.30
